Time;durP1;ratioP1;P1;durP2;ratioP2;P2;SDS_P1;SDS_P2;PMS_P1;PMS_P2;Temp;Humidity;BMP_temperature;BMP_pressure;BME280_temperature;BME280_humidity;BME280_pressure;Samples;Min_cycle;Max_cycle;Signal;HPM_P1;HPM_P2
2022/09/03 00:00:03;;;;;;;1.48;0.80;;;;;;;17.00;52.17;101325.19;6246362;28;20057;-74
2022/09/03 00:03:12;;;;;;;0.85;0.60;;;;;;;16.89;52.87;101317.94;6265052;28;20048;-74
2022/09/03 00:06:16;;;;;;;1.13;0.70;;;;;;;16.86;52.74;101328.81;6270027;28;20060;-74
2022/09/03 00:09:24;;;;;;;1.38;0.70;;;;;;;16.84;53.06;101324.56;6271735;28;20053;-74
2022/09/03 00:12:30;;;;;;;0.90;0.57;;;;;;;16.77;53.17;101320.66;6270813;28;20052;-74
2022/09/03 00:15:34;;;;;;;4.00;0.88;;;;;;;16.69;53.38;101321.13;6270952;28;20045;-74
2022/09/03 00:18:43;;;;;;;1.17;0.65;;;;;;;16.61;53.89;101321.66;6271363;28;20053;-74
2022/09/03 00:21:50;;;;;;;1.23;0.50;;;;;;;16.57;54.48;101321.97;6270846;28;20045;-74
2022/09/03 00:24:52;;;;;;;1.05;0.90;;;;;;;16.53;54.31;101321.34;6270879;28;20480;-74
2022/09/03 00:27:58;;;;;;;2.67;0.50;;;;;;;16.48;54.63;101310.19;6271143;28;20052;-75
2022/09/03 00:31:11;;;;;;;0.70;0.50;;;;;;;16.45;54.79;101315.75;6270825;28;20060;-74
2022/09/03 00:34:20;;;;;;;1.23;0.70;;;;;;;16.45;55.08;101313.09;6270822;28;20139;-75
2022/09/03 00:37:22;;;;;;;1.33;0.85;;;;;;;16.38;55.21;101320.59;6271110;28;20055;-74
2022/09/03 00:40:39;;;;;;;0.82;0.60;;;;;;;16.26;55.42;101313.50;6270752;28;20045;-74
2022/09/03 00:43:57;;;;;;;0.70;0.70;;;;;;;16.23;56.10;101311.88;6270936;28;20488;-74
2022/09/03 00:47:02;;;;;;;1.52;0.80;;;;;;;16.21;55.76;101315.59;6271308;28;20424;-75
2022/09/03 00:50:09;;;;;;;1.10;0.60;;;;;;;16.22;56.22;101306.69;6270284;28;20071;-75
2022/09/03 00:53:15;;;;;;;4.25;0.65;;;;;;;16.23;56.11;101311.03;6271135;28;20126;-75
2022/09/03 00:56:25;;;;;;;0.90;0.70;;;;;;;16.22;56.18;101312.00;6270539;28;20045;-75
2022/09/03 00:59:37;;;;;;;0.73;0.55;;;;;;;16.23;56.08;101308.41;6270813;28;20041;-75
2022/09/03 01:03:01;;;;;;;1.15;0.88;;;;;;;16.16;56.36;101304.44;6271028;28;20060;-75
2022/09/03 01:06:14;;;;;;;0.55;0.50;;;;;;;16.15;56.21;101308.06;6270417;28;20053;-74
2022/09/03 01:09:30;;;;;;;0.45;0.45;;;;;;;16.17;56.43;101304.38;6271022;28;20048;-75
2022/09/03 01:12:40;;;;;;;0.88;0.60;;;;;;;16.10;56.43;101302.22;6270462;28;20052;-74
2022/09/03 01:15:51;;;;;;;1.13;0.70;;;;;;;16.04;56.83;101297.34;6270427;28;20057;-74
2022/09/03 01:19:03;;;;;;;1.33;0.82;;;;;;;16.05;57.19;101302.53;6274520;28;20063;-75
2022/09/03 01:22:24;;;;;;;0.70;0.70;;;;;;;16.08;56.75;101305.00;6273740;28;20045;-74
2022/09/03 01:25:37;;;;;;;0.80;0.75;;;;;;;16.11;56.78;101306.56;6274757;28;20053;-76
2022/09/03 01:28:55;;;;;;;1.77;0.70;;;;;;;16.05;57.15;101304.34;6275239;28;20048;-73
2022/09/03 01:32:04;;;;;;;0.90;0.60;;;;;;;16.03;57.26;101296.47;6274727;28;20131;-74
2022/09/03 01:35:15;;;;;;;2.35;0.70;;;;;;;16.00;57.14;101298.50;6274482;28;20057;-74
2022/09/03 01:38:26;;;;;;;1.48;0.70;;;;;;;15.97;57.63;101307.50;6275202;28;20056;-74
2022/09/03 01:45:30;;;;;;;1.13;0.80;;;;;;;15.99;57.53;101302.97;6173720;28;20055;-74
2022/09/03 01:48:45;;;;;;;0.63;0.60;;;;;;;15.96;57.40;101297.84;6274931;28;20053;-73
2022/09/03 01:51:46;;;;;;;0.65;0.63;;;;;;;15.92;57.73;101307.81;6281298;22;20052;-72
2022/09/03 01:55:00;;;;;;;1.65;0.60;;;;;;;15.88;57.74;101298.34;6249400;28;20045;-72
2022/09/03 01:58:09;;;;;;;0.95;0.70;;;;;;;15.88;57.73;101308.09;6249325;28;20460;-73
2022/09/03 02:01:17;;;;;;;1.42;0.73;;;;;;;15.84;57.84;101306.59;6249074;28;20050;-73
2022/09/03 02:04:22;;;;;;;0.47;0.47;;;;;;;15.83;58.13;101307.56;6249376;28;20041;-73
2022/09/03 02:07:25;;;;;;;1.15;0.68;;;;;;;15.81;58.50;101314.78;6249365;28;20057;-71
2022/09/03 02:10:31;;;;;;;1.70;0.80;;;;;;;15.79;58.05;101308.72;6248900;28;20052;-71
2022/09/03 02:13:38;;;;;;;1.58;0.80;;;;;;;15.69;58.30;101306.69;6245853;28;20050;-71
2022/09/03 02:16:43;;;;;;;1.67;0.60;;;;;;;15.68;58.58;101310.28;6248796;28;20080;-72
2022/09/03 02:19:44;;;;;;;0.73;0.60;;;;;;;15.67;58.52;101310.41;6248688;28;20391;-73
2022/09/03 02:22:47;;;;;;;0.52;0.50;;;;;;;15.70;58.50;101316.31;6248496;28;20042;-73
2022/09/03 02:25:52;;;;;;;1.17;0.50;;;;;;;15.68;58.40;101309.44;6248585;28;20058;-73
2022/09/03 02:28:55;;;;;;;1.13;0.60;;;;;;;15.61;58.64;101308.09;6248145;28;20057;-72
2022/09/03 02:31:58;;;;;;;0.60;0.50;;;;;;;15.59;58.65;101299.41;6248370;28;20460;-73
2022/09/03 02:35:00;;;;;;;3.42;0.70;;;;;;;15.56;59.04;101310.19;6248520;28;20052;-73
2022/09/03 02:38:10;;;;;;;0.68;0.60;;;;;;;15.55;58.98;101309.34;6248838;28;20057;-73
2022/09/03 02:41:13;;;;;;;0.93;0.70;;;;;;;15.60;58.97;101314.34;6248465;28;20417;-73
2022/09/03 02:44:22;;;;;;;1.30;0.68;;;;;;;15.57;59.02;101310.09;6248253;28;20049;-73
2022/09/03 02:47:31;;;;;;;2.20;0.93;;;;;;;15.55;59.00;101312.00;6248709;28;20057;-72
2022/09/03 02:50:40;;;;;;;1.63;0.80;;;;;;;15.54;59.40;101309.47;6248078;28;20057;-72
2022/09/03 02:53:42;;;;;;;0.60;0.60;;;;;;;15.42;59.45;101311.94;6247725;28;20053;-72
2022/09/03 02:56:47;;;;;;;0.50;0.50;;;;;;;15.36;59.53;101308.84;6248217;28;20053;-72
2022/09/03 02:59:48;;;;;;;1.00;0.65;;;;;;;15.32;59.97;101317.94;6247929;28;20054;-73
2022/09/03 03:02:51;;;;;;;0.75;0.60;;;;;;;15.29;60.20;101302.25;6247979;28;20057;-73
2022/09/03 03:05:55;;;;;;;1.48;0.60;;;;;;;15.27;60.08;101298.84;6247441;28;20072;-73
2022/09/03 03:08:56;;;;;;;0.55;0.55;;;;;;;15.24;60.14;101302.53;6248032;28;20053;-73
2022/09/03 03:11:58;;;;;;;0.70;0.70;;;;;;;15.15;60.42;101301.31;6247391;28;20469;-73
2022/09/03 03:14:59;;;;;;;1.98;0.70;;;;;;;15.09;60.86;101300.88;6247499;28;20049;-73
2022/09/03 03:18:02;;;;;;;0.93;0.70;;;;;;;15.07;60.82;101302.75;6247805;28;20060;-73
2022/09/03 03:21:04;;;;;;;1.00;0.50;;;;;;;15.02;61.46;101303.03;6247262;28;20519;-73
2022/09/03 03:24:06;;;;;;;1.50;0.90;;;;;;;15.00;61.38;101309.41;6247167;28;20121;-73
2022/09/03 03:27:09;;;;;;;0.70;0.70;;;;;;;14.96;61.72;101306.94;6247639;28;20096;-73
2022/09/03 03:30:12;;;;;;;0.93;0.50;;;;;;;14.96;61.60;101303.44;6246898;28;20045;-73
2022/09/03 03:33:14;;;;;;;0.82;0.68;;;;;;;14.93;61.17;101303.63;6247571;28;20456;-73
2022/09/03 03:36:16;;;;;;;1.33;0.60;;;;;;;14.90;61.69;101293.25;6247075;28;20049;-73
2022/09/03 03:39:17;;;;;;;2.80;0.60;;;;;;;14.88;61.76;101306.56;6247416;28;20045;-73
2022/09/03 03:42:19;;;;;;;0.82;0.82;;;;;;;14.87;61.54;101306.66;6246752;28;20464;-73
2022/09/03 03:45:20;;;;;;;0.93;0.50;;;;;;;14.85;61.47;101305.88;6246714;28;20045;-73
2022/09/03 03:48:23;;;;;;;1.27;0.70;;;;;;;14.81;61.94;101307.91;6247271;28;20049;-73
2022/09/03 03:51:24;;;;;;;0.57;0.50;;;;;;;14.80;61.89;101308.81;6246423;28;20045;-73
2022/09/03 03:54:26;;;;;;;1.17;0.80;;;;;;;14.73;62.03;101312.81;6246769;28;20056;-73
2022/09/03 03:57:30;;;;;;;2.08;0.68;;;;;;;14.75;62.27;101310.06;6246844;28;20058;-73
2022/09/03 04:00:36;;;;;;;1.17;0.70;;;;;;;14.72;62.30;101313.75;6246676;28;20144;-72
2022/09/03 04:03:39;;;;;;;0.60;0.60;;;;;;;14.77;62.21;101316.13;6246767;28;20049;-71
2022/09/03 04:06:40;;;;;;;0.90;0.60;;;;;;;14.76;62.39;101312.63;6246743;28;20057;-72
2022/09/03 04:09:42;;;;;;;0.88;0.60;;;;;;;14.73;62.62;101312.81;6246640;28;20049;-74
2022/09/03 04:12:43;;;;;;;0.50;0.50;;;;;;;14.69;62.31;101306.84;6246670;28;20056;-72
2022/09/03 04:15:44;;;;;;;0.57;0.50;;;;;;;14.68;62.31;101307.81;6246426;28;20054;-72
2022/09/03 04:18:48;;;;;;;0.50;0.50;;;;;;;14.67;62.09;101305.22;6246504;28;20049;-73
2022/09/03 04:21:49;;;;;;;1.08;0.65;;;;;;;14.63;62.53;101306.38;6246141;28;20045;-74
2022/09/03 04:24:51;;;;;;;0.77;0.50;;;;;;;14.59;62.59;101304.88;6246162;28;20092;-74
2022/09/03 04:27:52;;;;;;;0.55;0.55;;;;;;;14.58;62.74;101304.03;6246644;28;20049;-74
2022/09/03 04:30:54;;;;;;;2.20;0.68;;;;;;;14.56;62.66;101305.06;6246011;28;20041;-74
2022/09/03 04:33:56;;;;;;;0.88;0.63;;;;;;;14.55;62.95;101300.72;6246194;28;20056;-74
2022/09/03 04:36:58;;;;;;;2.75;0.70;;;;;;;14.51;62.95;101299.19;6246462;28;20509;-74
2022/09/03 04:39:59;;;;;;;1.30;0.70;;;;;;;14.50;62.98;101301.00;6246249;28;20184;-74
2022/09/03 04:43:00;;;;;;;0.90;0.70;;;;;;;14.46;63.26;101305.56;6245837;28;20449;-74
2022/09/03 04:46:04;;;;;;;1.00;0.68;;;;;;;14.41;63.41;101302.38;6246139;28;20490;-74
2022/09/03 04:49:08;;;;;;;0.50;0.50;;;;;;;14.39;63.34;101303.38;6246323;28;20072;-74
2022/09/03 04:52:09;;;;;;;1.10;0.60;;;;;;;14.37;63.46;101308.78;6248461;28;20053;-74
2022/09/03 04:55:11;;;;;;;1.42;0.88;;;;;;;14.39;63.85;101308.69;6250725;28;20050;-74
2022/09/03 04:58:12;;;;;;;1.00;0.88;;;;;;;14.41;63.63;101312.09;6250838;28;20199;-74
2022/09/03 05:01:17;;;;;;;0.65;0.50;;;;;;;14.40;63.16;101316.53;6250393;28;20050;-74
2022/09/03 05:04:20;;;;;;;1.02;0.50;;;;;;;14.37;63.42;101318.50;6250380;28;20052;-74
2022/09/03 05:07:21;;;;;;;0.43;0.43;;;;;;;14.35;63.12;101312.44;6250747;28;20439;-74
2022/09/03 05:10:22;;;;;;;1.25;0.73;;;;;;;14.37;63.78;101308.78;6250306;28;20056;-74
2022/09/03 05:13:24;;;;;;;1.50;0.47;;;;;;;14.38;63.53;101306.97;6251037;28;20049;-74
2022/09/03 05:16:28;;;;;;;0.93;0.52;;;;;;;14.38;63.48;101315.75;6250282;28;20512;-74
2022/09/03 05:19:31;;;;;;;0.45;0.45;;;;;;;14.39;63.16;101306.03;6250629;28;20128;-74
2022/09/03 05:22:33;;;;;;;0.47;0.47;;;;;;;14.34;63.25;101303.66;6249957;28;20448;-74
2022/09/03 05:25:36;;;;;;;0.55;0.43;;;;;;;14.40;63.23;101302.47;6249775;28;20140;-74
2022/09/03 05:28:40;;;;;;;0.50;0.45;;;;;;;14.39;63.43;101296.31;6250386;28;20552;-74
2022/09/03 05:31:42;;;;;;;0.85;0.50;;;;;;;14.35;63.23;101293.94;6249235;28;20049;-74
2022/09/03 05:34:44;;;;;;;0.85;0.50;;;;;;;14.37;63.54;101302.66;6248163;28;20053;-74
2022/09/03 05:37:46;;;;;;;1.80;0.70;;;;;;;14.42;63.39;101293.47;6248390;28;20045;-74
2022/09/03 05:40:48;;;;;;;2.72;0.70;;;;;;;14.46;63.41;101296.78;6247762;28;20410;-74
2022/09/03 05:43:54;;;;;;;1.58;0.60;;;;;;;14.52;63.25;101299.09;6248002;28;20060;-74
2022/09/03 05:46:56;;;;;;;0.60;0.50;;;;;;;14.50;62.88;101295.69;6248533;28;20136;-74
2022/09/03 05:49:59;;;;;;;1.52;0.55;;;;;;;14.49;62.98;101304.59;6245098;28;20062;-74
2022/09/03 05:53:00;;;;;;;0.60;0.55;;;;;;;14.51;63.25;101307.13;6247954;28;20058;-74
2022/09/03 05:56:05;;;;;;;0.40;0.40;;;;;;;14.58;63.14;101297.84;6247539;28;20041;-74
2022/09/03 05:59:09;;;;;;;1.55;0.60;;;;;;;14.59;62.50;101300.44;6248161;28;20114;-74
2022/09/03 06:02:10;;;;;;;2.85;0.80;;;;;;;14.59;63.14;101302.22;6247068;28;20405;-74
2022/09/03 06:05:13;;;;;;;1.05;0.93;;;;;;;14.62;63.07;101304.66;6247503;28;20493;-74
2022/09/03 06:08:14;;;;;;;0.93;0.47;;;;;;;14.66;62.99;101308.81;6247825;28;20050;-74
2022/09/03 06:11:16;;;;;;;0.93;0.63;;;;;;;14.68;62.88;101307.81;6247965;28;20048;-74
2022/09/03 06:14:18;;;;;;;0.68;0.50;;;;;;;14.75;62.72;101312.69;6249247;28;20069;-74
2022/09/03 06:17:19;;;;;;;1.08;0.57;;;;;;;14.78;63.20;101304.59;6249172;28;20050;-74
2022/09/03 06:20:27;;;;;;;1.13;0.65;;;;;;;14.83;62.93;101308.63;6248757;28;20049;-74
2022/09/03 06:23:30;;;;;;;0.70;0.60;;;;;;;14.84;62.41;101310.34;6248964;28;20134;-74
2022/09/03 06:26:32;;;;;;;0.73;0.70;;;;;;;14.90;63.12;101317.06;6248652;28;20056;-74
2022/09/03 06:29:34;;;;;;;0.43;0.38;;;;;;;14.94;62.32;101319.41;6248837;28;20512;-74
2022/09/03 06:32:43;;;;;;;1.17;0.52;;;;;;;14.99;62.93;101311.19;6248253;28;20456;-74
2022/09/03 06:35:46;;;;;;;2.58;0.50;;;;;;;15.06;62.24;101314.28;6248282;28;20791;-73
2022/09/03 06:38:51;;;;;;;1.20;0.68;;;;;;;15.03;62.09;101307.38;6249050;28;20059;-74
2022/09/03 06:41:53;;;;;;;0.93;0.68;;;;;;;15.05;62.13;101310.81;6247993;28;20409;-73
2022/09/03 06:44:56;;;;;;;1.75;0.80;;;;;;;15.10;62.12;101311.34;6248275;28;20057;-74
2022/09/03 06:47:57;;;;;;;0.50;0.50;;;;;;;15.16;62.14;101313.59;6248453;28;20049;-71
2022/09/03 06:51:02;;;;;;;2.05;0.70;;;;;;;15.25;62.19;101322.75;6247628;28;20544;-71
2022/09/03 06:54:05;;;;;;;0.50;0.50;;;;;;;15.26;61.54;101319.19;6248044;28;20046;-72
2022/09/03 06:57:06;;;;;;;0.75;0.60;;;;;;;15.34;61.44;101326.63;6248098;28;20103;-72
2022/09/03 07:00:08;;;;;;;1.17;0.80;;;;;;;15.37;61.14;101321.13;6247244;28;20072;-71
2022/09/03 07:03:10;;;;;;;0.75;0.65;;;;;;;15.40;61.53;101320.97;6248552;28;20045;-71
2022/09/03 07:06:14;;;;;;;1.77;0.50;;;;;;;15.44;61.04;101320.66;6247970;28;20049;-72
2022/09/03 07:09:17;;;;;;;1.67;0.50;;;;;;;15.48;61.34;101316.84;6248019;28;20049;-72
2022/09/03 07:12:19;;;;;;;0.63;0.52;;;;;;;15.53;61.16;101316.53;6247611;28;20051;-72
2022/09/03 07:15:20;;;;;;;1.17;0.50;;;;;;;15.60;60.38;101317.84;6247036;28;20501;-73
2022/09/03 07:18:21;;;;;;;0.50;0.50;;;;;;;15.66;60.59;101319.28;6248048;28;20046;-72
2022/09/03 07:21:25;;;;;;;0.85;0.73;;;;;;;15.67;60.50;101311.25;6247104;28;20057;-72
2022/09/03 07:24:28;;;;;;;2.08;0.50;;;;;;;15.72;60.70;101308.28;6247560;28;20056;-73
2022/09/03 07:27:29;;;;;;;0.47;0.47;;;;;;;15.81;60.19;101312.97;6247593;28;20493;-72
2022/09/03 07:30:31;;;;;;;0.50;0.47;;;;;;;15.86;60.46;101307.38;6247394;28;20053;-72
2022/09/03 07:33:33;;;;;;;0.70;0.70;;;;;;;15.90;59.88;101306.22;6247481;28;20049;-72
2022/09/03 07:36:38;;;;;;;0.82;0.65;;;;;;;15.99;59.77;101310.91;6246929;28;20514;-73
2022/09/03 07:39:40;;;;;;;1.08;0.68;;;;;;;16.08;59.38;101317.38;6247262;28;20156;-71
2022/09/03 07:42:42;;;;;;;1.08;0.80;;;;;;;16.12;59.50;101321.50;6246923;28;20180;-72
2022/09/03 07:45:50;;;;;;;1.25;0.50;;;;;;;16.14;59.37;101316.97;6247035;28;20046;-72
2022/09/03 07:48:53;;;;;;;0.70;0.52;;;;;;;16.22;58.86;101317.31;6247142;28;20053;-71
2022/09/03 07:51:55;;;;;;;3.55;0.75;;;;;;;16.27;59.18;101312.53;6246970;28;20056;-72
2022/09/03 07:54:58;;;;;;;0.65;0.52;;;;;;;16.33;59.38;101313.91;6246533;28;20056;-71
2022/09/03 07:57:59;;;;;;;0.90;0.35;;;;;;;16.40;58.88;101309.91;6247015;28;20057;-71
2022/09/03 08:01:07;;;;;;;0.70;0.65;;;;;;;16.48;58.84;101308.38;6246506;28;20641;-71
2022/09/03 08:04:09;;;;;;;0.50;0.50;;;;;;;16.59;58.04;101315.63;6246499;28;20481;-72
2022/09/03 08:07:12;;;;;;;0.50;0.50;;;;;;;16.64;58.33;101320.63;6246983;28;20107;-72
2022/09/03 08:10:13;;;;;;;1.17;0.60;;;;;;;16.76;57.38;101316.28;6246654;28;20060;-73
2022/09/03 08:13:15;;;;;;;1.05;0.60;;;;;;;16.76;56.47;101314.50;6246752;28;20058;-72
2022/09/03 08:16:18;;;;;;;0.50;0.50;;;;;;;16.85;57.00;101313.84;6246389;28;20451;-72
2022/09/03 08:19:19;;;;;;;1.10;0.88;;;;;;;16.91;57.09;101309.91;6261236;22;20635;-74
2022/09/03 08:22:24;;;;;;;1.27;0.60;;;;;;;16.98;56.84;101304.03;6246249;28;20508;-74
2022/09/03 08:25:25;;;;;;;0.90;0.57;;;;;;;17.16;56.52;101316.94;6246692;28;20142;-74
2022/09/03 08:28:27;;;;;;;0.55;0.50;;;;;;;17.21;55.60;101315.69;6246245;28;20049;-74
2022/09/03 08:31:29;;;;;;;0.82;0.65;;;;;;;17.30;55.78;101315.94;6251694;28;20046;-75
2022/09/03 08:34:31;;;;;;;0.90;0.60;;;;;;;17.37;54.47;101322.53;6249439;28;20128;-76
2022/09/03 08:37:33;;;;;;;1.20;0.70;;;;;;;17.45;54.12;101305.06;6250874;28;20402;-74
2022/09/03 08:40:37;;;;;;;1.35;0.40;;;;;;;17.50;54.46;101308.22;6243531;28;20061;-74
2022/09/03 08:43:56;;;;;;;0.47;0.38;;;;;;;17.69;53.81;101305.06;6244531;28;20050;-75
2022/09/03 08:47:00;;;;;;;;;;;;;;;17.73;53.58;101314.53;6252113;28;20064;-74
2022/09/03 08:50:07;;;;;;;0.88;0.68;;;;;;;17.90;53.29;101305.31;6251310;28;19921;-75
2022/09/03 08:53:15;;;;;;;0.68;0.60;;;;;;;17.96;53.13;101301.34;6252162;28;20052;-74
2022/09/03 08:56:25;;;;;;;0.60;0.57;;;;;;;17.95;52.80;101300.50;6256055;28;20420;-74
2022/09/03 08:59:27;;;;;;;0.88;0.63;;;;;;;18.03;53.93;101313.19;6230274;28;20057;-75
2022/09/03 09:02:40;;;;;;;0.93;0.70;;;;;;;18.15;52.47;101303.44;6244074;28;20056;-74
2022/09/03 09:05:50;;;;;;;1.02;0.50;;;;;;;18.31;52.65;101296.00;6244872;28;20049;-74
2022/09/03 09:09:12;;;;;;;1.52;0.60;;;;;;;18.50;51.17;101287.41;6250850;28;20056;-74
2022/09/03 09:12:20;;;;;;;2.78;1.70;;;;;;;18.62;49.72;101288.25;6251045;28;20045;-76
2022/09/03 09:15:30;;;;;;;1.55;0.60;;;;;;;18.75;49.78;101292.53;6250857;28;20056;-75
2022/09/03 09:18:47;;;;;;;0.60;0.50;;;;;;;18.82;49.32;101287.56;6250587;28;20056;-73
2022/09/03 09:21:53;;;;;;;0.52;0.45;;;;;;;18.81;50.09;101285.91;6250516;28;20050;-74
2022/09/03 09:25:00;;;;;;;1.13;0.60;;;;;;;18.92;49.35;101274.38;6250203;28;20049;-74
2022/09/03 09:28:06;;;;;;;0.63;0.55;;;;;;;19.04;49.30;101272.56;6250597;28;20060;-73
2022/09/03 09:31:11;;;;;;;1.85;0.65;;;;;;;19.14;48.77;101276.16;6249889;28;20060;-74
2022/09/03 09:34:12;;;;;;;0.88;0.50;;;;;;;19.36;48.64;101273.44;6250110;28;20136;-74
2022/09/03 09:37:16;;;;;;;0.95;0.75;;;;;;;19.38;47.55;101274.16;6249714;28;20166;-74
2022/09/03 09:40:31;;;;;;;0.60;0.57;;;;;;;19.42;48.27;101285.41;6249869;28;20050;-74
2022/09/03 09:43:32;;;;;;;0.80;0.80;;;;;;;19.49;47.40;101267.94;6249799;28;20049;-72
2022/09/03 09:46:36;;;;;;;0.77;0.52;;;;;;;19.50;47.00;101269.63;6250038;28;20505;-74
2022/09/03 09:49:50;;;;;;;1.25;0.43;;;;;;;19.62;46.80;101266.00;6250008;28;20045;-74
2022/09/03 09:53:03;;;;;;;2.35;0.60;;;;;;;19.76;45.65;101270.19;6250449;28;20072;-73
2022/09/03 09:56:06;;;;;;;2.85;0.73;;;;;;;19.76;46.53;101263.03;6249579;28;20107;-73
2022/09/03 09:59:10;;;;;;;1.73;0.45;;;;;;;19.98;45.73;101269.19;6249992;28;20049;-74
2022/09/03 10:02:14;;;;;;;1.25;0.70;;;;;;;20.12;45.89;101266.22;6249600;28;20409;-74
2022/09/03 10:05:21;;;;;;;1.90;0.80;;;;;;;20.15;45.98;101252.59;6249438;28;20519;-74
2022/09/03 10:08:23;;;;;;;1.17;0.50;;;;;;;20.19;45.82;101253.19;6249683;28;20052;-74
2022/09/03 10:11:26;;;;;;;0.82;0.60;;;;;;;20.32;44.97;101256.50;6249718;28;20045;-75
2022/09/03 10:14:35;;;;;;;1.13;0.50;;;;;;;20.45;44.41;101253.63;6247370;28;20049;-74
2022/09/03 10:17:42;;;;;;;;;;;;;;;20.48;44.51;101248.00;6252363;28;20057;-74
2022/09/03 10:20:52;;;;;;;1.23;0.60;;;;;;;20.59;44.25;101244.44;6250979;28;19921;-75
2022/09/03 10:23:59;;;;;;;0.40;0.40;;;;;;;20.68;44.43;101247.13;6251489;28;20052;-75
2022/09/03 10:27:02;;;;;;;1.08;0.73;;;;;;;20.76;42.95;101236.63;6250941;28;20612;-75
2022/09/03 10:30:05;;;;;;;0.63;0.50;;;;;;;20.78;43.00;101244.50;6250402;28;20050;-76
2022/09/03 10:33:14;;;;;;;2.80;0.80;;;;;;;20.91;42.42;101242.41;6250779;28;20132;-76
2022/09/03 10:36:21;;;;;;;0.70;0.45;;;;;;;21.07;42.40;101233.03;6250663;28;20049;-75
2022/09/03 10:39:29;;;;;;;2.05;0.60;;;;;;;21.26;40.95;101230.41;6250961;28;20053;-76
2022/09/03 10:42:44;;;;;;;0.60;0.50;;;;;;;21.28;41.36;101239.13;6250751;28;20050;-76
2022/09/03 10:45:58;;;;;;;1.10;0.70;;;;;;;21.46;40.81;101228.59;6250388;28;20050;-76
2022/09/03 10:49:14;;;;;;;0.88;0.70;;;;;;;21.58;40.66;101223.97;6249746;28;20081;-75
2022/09/03 10:52:26;;;;;;;0.90;0.70;;;;;;;21.54;41.11;101226.06;6250155;28;20049;-76
2022/09/03 10:55:35;;;;;;;0.85;0.57;;;;;;;21.64;39.76;101215.38;6250724;28;20058;-75
2022/09/03 10:58:54;;;;;;;0.93;0.82;;;;;;;21.80;39.51;101215.59;6250081;28;20603;-76
2022/09/03 11:02:06;;;;;;;1.00;0.50;;;;;;;22.03;39.32;101218.84;6250442;28;20049;-75
2022/09/03 11:05:15;;;;;;;0.45;0.45;;;;;;;22.08;39.02;101218.41;6250472;28;20053;-75
2022/09/03 11:08:23;;;;;;;0.90;0.50;;;;;;;22.17;39.04;101199.66;6250635;28;20054;-75
2022/09/03 11:11:31;;;;;;;0.98;0.55;;;;;;;22.34;37.98;101203.38;6249004;28;20053;-74
2022/09/03 11:14:39;;;;;;;0.63;0.63;;;;;;;22.56;36.76;101194.13;6247353;28;20041;-73
2022/09/03 11:17:48;;;;;;;1.13;0.50;;;;;;;22.68;36.60;101184.91;6243048;28;20045;-73
2022/09/03 11:20:53;;;;;;;0.82;0.57;;;;;;;22.90;36.67;101185.50;6255772;28;20052;-72
2022/09/03 11:24:06;;;;;;;1.30;0.82;;;;;;;23.22;36.09;101201.94;6226239;28;20046;-73
2022/09/03 11:27:25;;;;;;;0.85;0.50;;;;;;;23.34;35.31;101183.75;6227215;28;20073;-74
2022/09/03 11:30:35;;;;;;;1.63;0.60;;;;;;;23.48;35.61;101177.84;6252742;28;20505;-74
2022/09/03 11:33:43;;;;;;;4.43;0.52;;;;;;;23.72;34.67;101187.13;6227012;28;20062;-71
2022/09/03 11:36:45;;;;;;;0.57;0.50;;;;;;;23.85;34.31;101179.50;6227047;28;20425;-71
2022/09/03 11:39:55;;;;;;;0.95;0.47;;;;;;;24.06;33.67;101181.78;6225891;28;20061;-71
2022/09/03 11:43:06;;;;;;;0.52;0.52;;;;;;;24.25;33.93;101183.41;6227537;28;20046;-72
2022/09/03 11:46:13;;;;;;;0.82;0.40;;;;;;;24.43;33.31;101186.03;6230038;28;20045;-72
2022/09/03 11:49:27;;;;;;;0.55;0.45;;;;;;;24.52;33.18;101183.22;6246823;28;20057;-72
2022/09/03 11:52:31;;;;;;;1.60;0.98;;;;;;;24.71;32.99;101170.53;6226758;28;20054;-72
2022/09/03 11:55:46;;;;;;;0.40;0.40;;;;;;;24.85;32.29;101169.91;6225977;28;20109;-73
2022/09/03 11:59:00;;;;;;;1.52;0.50;;;;;;;24.96;32.17;101174.97;6226584;28;20049;-72
2022/09/03 12:02:11;;;;;;;0.45;0.40;;;;;;;25.15;32.62;101162.25;6225700;28;20417;-72
2022/09/03 12:05:29;;;;;;;1.25;0.50;;;;;;;25.37;31.51;101171.50;6226862;28;20437;-72
2022/09/03 12:08:53;;;;;;;0.70;0.40;;;;;;;25.58;31.68;101157.53;6227174;28;20054;-73
2022/09/03 12:12:05;;;;;;;0.68;0.50;;;;;;;25.79;31.12;101158.69;6226946;28;20407;-73
2022/09/03 12:15:19;;;;;;;0.57;0.40;;;;;;;25.95;30.22;101162.38;6225286;28;20179;-72
2022/09/03 12:18:25;;;;;;;0.65;0.60;;;;;;;25.88;30.21;101156.00;6225939;28;20056;-73
2022/09/03 12:21:26;;;;;;;2.47;1.08;;;;;;;25.99;30.15;101161.88;6225032;28;20524;-72
2022/09/03 12:24:30;;;;;;;1.13;0.70;;;;;;;26.18;29.46;101154.41;6225671;28;20042;-72
2022/09/03 12:27:33;;;;;;;1.60;1.10;;;;;;;26.37;29.77;101155.84;6225916;28;20057;-72
2022/09/03 12:30:35;;;;;;;2.28;1.35;;;;;;;26.11;29.58;101142.63;6225724;28;20050;-72
2022/09/03 12:33:41;;;;;;;1.10;0.47;;;;;;;26.36;29.96;101140.69;6225814;28;20509;-72
2022/09/03 12:36:45;;;;;;;0.30;0.30;;;;;;;26.43;29.28;101139.84;6225552;28;20068;-72
2022/09/03 12:39:51;;;;;;;0.50;0.38;;;;;;;26.69;29.24;101144.09;6225826;28;20464;-73
2022/09/03 12:42:54;;;;;;;1.88;0.70;;;;;;;26.64;28.46;101135.69;6225889;28;20184;-72
2022/09/03 12:45:56;;;;;;;0.70;0.50;;;;;;;26.54;29.10;101144.84;6225969;28;20056;-72
2022/09/03 12:49:04;;;;;;;0.47;0.47;;;;;;;26.89;28.23;101142.63;6225611;28;20054;-72
2022/09/03 12:52:14;;;;;;;1.75;0.60;;;;;;;27.04;28.63;101142.69;6225281;28;20054;-72
2022/09/03 12:55:26;;;;;;;2.42;0.50;;;;;;;27.29;27.87;101132.56;6224479;28;20494;-73
2022/09/03 12:58:34;;;;;;;0.60;0.35;;;;;;;27.37;27.92;101134.34;6225211;28;20053;-72
2022/09/03 13:01:43;;;;;;;1.25;0.60;;;;;;;27.42;27.70;101132.78;6225300;28;20054;-72
2022/09/03 13:04:47;;;;;;;0.55;0.50;;;;;;;27.42;27.52;101129.25;6225040;28;20505;-73
2022/09/03 13:07:52;;;;;;;0.80;0.50;;;;;;;27.37;27.66;101124.38;6225188;28;20054;-73
2022/09/03 13:10:58;;;;;;;1.95;0.93;;;;;;;27.51;27.71;101123.56;6225070;28;20136;-73
2022/09/03 13:14:04;;;;;;;0.40;0.40;;;;;;;27.63;27.46;101123.97;6228648;28;20054;-72
2022/09/03 13:17:21;;;;;;;1.38;0.57;;;;;;;27.80;27.88;101116.59;6230069;28;20139;-73
2022/09/03 13:20:33;;;;;;;1.13;0.52;;;;;;;27.73;27.19;101119.16;6229763;28;20054;-72
2022/09/03 13:23:48;;;;;;;1.23;0.50;;;;;;;27.78;26.47;101115.91;6230009;28;20052;-73
2022/09/03 13:27:00;;;;;;;4.32;0.40;;;;;;;27.91;27.24;101117.97;6230090;28;20053;-73
2022/09/03 13:30:09;;;;;;;0.85;0.50;;;;;;;28.02;26.61;101121.06;6228876;28;20050;-73
2022/09/03 13:33:20;;;;;;;0.63;0.52;;;;;;;27.95;26.96;101117.41;6229587;28;20072;-72
2022/09/03 13:36:30;;;;;;;0.28;0.20;;;;;;;27.94;26.66;101120.31;6256763;28;20045;-73
2022/09/03 13:39:40;;;;;;;1.58;0.60;;;;;;;28.09;26.70;101118.44;6265674;28;20053;-73
2022/09/03 13:42:45;;;;;;;0.57;0.43;;;;;;;28.28;27.14;101128.66;6254342;28;20044;-73
2022/09/03 13:45:54;;;;;;;0.82;0.60;;;;;;;28.42;26.43;101118.88;6228583;28;20050;-73
2022/09/03 13:52:30;;;;;;;0.40;0.40;;;;;;;28.42;26.12;101121.56;6228822;28;20054;-72
2022/09/03 13:55:36;;;;;;;0.40;0.40;;;;;;;28.42;25.74;101118.88;6254532;28;20045;-73
2022/09/03 13:58:45;;;;;;;0.82;0.63;;;;;;;28.63;25.59;101117.25;6229991;28;20506;-72
2022/09/03 14:02:01;;;;;;;0.80;0.55;;;;;;;28.64;25.38;101111.63;6228695;28;20053;-73
2022/09/03 14:05:07;;;;;;;1.33;0.40;;;;;;;28.74;25.85;101116.72;6228245;28;20042;-73
2022/09/03 14:08:19;;;;;;;0.90;0.40;;;;;;;28.73;25.69;101121.31;6228360;28;20050;-73
2022/09/03 14:11:27;;;;;;;0.40;0.40;;;;;;;28.60;25.61;101112.22;6228360;28;20049;-73
2022/09/03 14:14:40;;;;;;;0.50;0.50;;;;;;;28.58;25.34;101109.72;6228327;28;20049;-73
2022/09/03 14:17:46;;;;;;;0.50;0.50;;;;;;;28.23;25.94;101114.03;6228713;28;20532;-72
2022/09/03 14:20:57;;;;;;;0.77;0.50;;;;;;;27.92;26.43;101106.13;6226064;28;20050;-74
2022/09/03 14:24:06;;;;;;;0.40;0.40;;;;;;;27.61;26.76;101117.06;6222802;28;20050;-74
2022/09/03 14:27:08;;;;;;;0.63;0.50;;;;;;;27.87;26.19;101104.00;6224412;28;20049;-75
2022/09/03 14:30:26;;;;;;;0.65;0.60;;;;;;;28.27;26.23;101105.38;6223981;28;20056;-74
2022/09/03 14:33:33;;;;;;;0.75;0.40;;;;;;;28.63;25.41;101103.72;6224400;28;20065;-74